createdAt,value
2018-06-11T00:01:59.995Z,18.40
2018-06-11T00:04:28.858Z,18.30
2018-06-11T00:06:57.742Z,18.30
2018-06-11T00:09:26.615Z,18.20
2018-06-11T00:11:55.498Z,18.20
2018-06-11T00:14:24.318Z,18.10
2018-06-11T00:16:53.067Z,18.10
2018-06-11T00:19:21.934Z,18.10
2018-06-11T00:21:50.795Z,18.10
2018-06-11T00:24:19.634Z,18.00
2018-06-11T00:26:48.455Z,18.00
2018-06-11T00:29:17.302Z,18.00
2018-06-11T00:34:15.645Z,17.90
2018-06-11T00:36:44.458Z,17.90
2018-06-11T00:39:13.258Z,17.80
2018-06-11T00:41:42.150Z,17.80
2018-06-11T00:44:10.988Z,17.80
2018-06-11T00:46:39.826Z,17.70
2018-06-11T00:49:08.672Z,17.70
2018-06-11T00:51:37.514Z,17.70
2018-06-11T00:54:07.238Z,17.60
2018-06-11T00:56:36.022Z,17.60
2018-06-11T00:59:04.926Z,17.60
2018-06-11T01:01:33.714Z,17.60
2018-06-11T01:04:02.835Z,17.50
2018-06-11T01:06:31.719Z,17.50
2018-06-11T01:09:00.575Z,17.50
2018-06-11T01:11:29.371Z,17.50
2018-06-11T01:13:58.219Z,17.40
2018-06-11T01:16:26.954Z,17.40
2018-06-11T01:21:24.263Z,17.30
2018-06-11T01:23:53.111Z,17.30
2018-06-11T01:26:22.887Z,17.30
2018-06-11T01:28:51.702Z,17.30
2018-06-11T01:31:20.520Z,17.30
2018-06-11T01:33:49.427Z,17.20
2018-06-11T01:36:18.278Z,17.20
2018-06-11T01:38:47.100Z,17.20
2018-06-11T01:41:15.995Z,17.20
2018-06-11T01:43:44.871Z,17.10
2018-06-11T01:46:13.711Z,17.10
2018-06-11T01:48:42.555Z,17.10
2018-06-11T01:51:11.311Z,17.00
2018-06-11T01:53:40.192Z,17.00
2018-06-11T01:56:08.991Z,17.10
2018-06-11T01:58:37.778Z,17.00
2018-06-11T02:03:37.754Z,16.90
2018-06-11T02:06:06.783Z,16.90
2018-06-11T02:08:35.618Z,16.90
2018-06-11T02:11:04.496Z,16.90
2018-06-11T02:13:33.370Z,16.90
2018-06-11T02:18:31.002Z,16.80
2018-06-11T02:20:59.842Z,16.80
2018-06-11T02:23:28.752Z,16.80
2018-06-11T02:25:57.643Z,16.70
2018-06-11T02:28:26.506Z,16.70
2018-06-11T02:30:55.339Z,16.70
2018-06-11T02:33:24.203Z,16.70
2018-06-11T02:35:53.100Z,16.60
2018-06-11T02:38:21.872Z,16.60
2018-06-11T02:40:50.642Z,16.60
2018-06-11T02:43:19.419Z,16.60
2018-06-11T02:45:48.171Z,16.50
2018-06-11T02:48:18.034Z,16.50
2018-06-11T02:50:47.806Z,16.50
2018-06-11T02:53:17.558Z,16.50
2018-06-11T02:55:46.455Z,16.40
2018-06-11T02:58:15.326Z,16.40
2018-06-11T03:00:45.099Z,16.40
2018-06-11T03:03:13.919Z,16.40
2018-06-11T03:05:42.747Z,16.30
2018-06-11T03:08:11.646Z,16.30
2018-06-11T03:10:40.530Z,16.30
2018-06-11T03:13:09.438Z,16.30
2018-06-11T03:15:38.340Z,16.20
2018-06-11T03:18:07.254Z,16.20
2018-06-11T03:20:36.106Z,16.20
2018-06-11T03:23:05.087Z,16.20
2018-06-11T03:25:33.954Z,16.20
2018-06-11T03:28:03.254Z,16.20
2018-06-11T03:33:00.646Z,16.10
2018-06-11T03:35:29.542Z,16.10
2018-06-11T03:38:00.366Z,16.10
2018-06-11T03:40:29.242Z,16.10
2018-06-11T03:42:58.014Z,16.10
2018-06-11T03:47:55.398Z,16.10
2018-06-11T03:50:24.654Z,16.00
2018-06-11T03:52:53.478Z,16.10
2018-06-11T03:55:22.254Z,16.10
2018-06-11T03:57:51.073Z,16.10
2018-06-11T04:00:19.961Z,16.10
2018-06-11T04:02:48.857Z,16.10
2018-06-11T04:05:17.766Z,16.10
2018-06-11T04:07:46.668Z,16.10
2018-06-11T04:10:15.478Z,16.10
2018-06-11T04:12:44.372Z,16.10
2018-06-11T04:15:13.174Z,16.10
2018-06-11T04:17:43.286Z,16.20
2018-06-11T04:20:12.105Z,16.20
2018-06-11T04:22:40.977Z,16.20
2018-06-11T04:25:09.754Z,16.20
2018-06-11T04:27:38.554Z,16.30
2018-06-11T04:30:07.489Z,16.30
2018-06-11T04:32:36.338Z,16.30
2018-06-11T04:37:33.965Z,16.40
2018-06-11T04:40:02.910Z,16.40
2018-06-11T04:42:32.094Z,16.40
2018-06-11T04:45:02.038Z,16.50
2018-06-11T04:47:30.862Z,16.50
2018-06-11T04:49:59.678Z,16.60
2018-06-11T04:52:28.473Z,16.60
2018-06-11T04:54:57.226Z,16.70
2018-06-11T04:57:26.022Z,16.70
2018-06-11T04:59:56.865Z,16.80
2018-06-11T05:02:25.669Z,16.90
2018-06-11T05:07:22.911Z,17.00
2018-06-11T05:09:51.953Z,17.10
2018-06-11T05:12:20.786Z,17.10
2018-06-11T05:14:49.581Z,17.20
2018-06-11T05:17:18.370Z,17.30
2018-06-11T05:19:48.195Z,17.40
2018-06-11T05:22:16.982Z,17.50
2018-06-11T05:24:45.757Z,17.50
2018-06-11T05:27:14.561Z,17.70
2018-06-11T05:29:43.326Z,17.70
2018-06-11T05:32:12.118Z,17.80
2018-06-11T05:34:40.964Z,17.90
2018-06-11T05:37:09.698Z,18.00
2018-06-11T05:39:38.534Z,18.10
2018-06-11T05:42:07.381Z,18.30
2018-06-11T05:44:36.190Z,18.30
2018-06-11T05:47:05.270Z,18.40
2018-06-11T05:49:34.022Z,18.50
2018-06-11T05:52:02.846Z,18.70
2018-06-11T05:54:31.626Z,18.80
2018-06-11T05:57:00.425Z,18.90
2018-06-11T05:59:29.200Z,19.10
2018-06-11T06:01:58.101Z,19.20
2018-06-11T06:04:26.869Z,19.30
2018-06-11T06:06:55.649Z,19.50
2018-06-11T06:09:24.446Z,19.70
2018-06-11T06:11:53.254Z,19.90
2018-06-11T06:14:22.049Z,20.00
2018-06-11T06:16:50.813Z,20.20
2018-06-11T06:19:19.595Z,20.40
2018-06-11T06:21:48.381Z,20.60
2018-06-11T06:24:17.129Z,20.80
2018-06-11T06:26:46.224Z,21.00
2018-06-11T06:29:14.889Z,21.20
2018-06-11T06:31:43.636Z,21.40
2018-06-11T06:36:40.910Z,21.80
2018-06-11T06:39:10.026Z,22.00
2018-06-11T06:41:38.855Z,22.20
2018-06-11T06:44:09.454Z,22.40
2018-06-11T06:46:38.213Z,22.60
2018-06-11T06:49:07.014Z,22.90
2018-06-11T06:51:35.790Z,23.00
2018-06-11T06:54:04.562Z,23.20
2018-06-11T06:56:33.353Z,23.40
2018-06-11T06:59:02.142Z,23.60
2018-06-11T07:01:30.921Z,23.80
2018-06-11T07:03:59.654Z,24.00
2018-06-11T07:06:28.397Z,24.20
2018-06-11T07:08:57.209Z,24.40
2018-06-11T07:11:25.994Z,24.60
2018-06-11T07:13:54.774Z,24.80
2018-06-11T07:16:23.558Z,25.00
2018-06-11T07:18:52.338Z,25.20
2018-06-11T07:21:21.126Z,25.40
2018-06-11T07:23:49.876Z,25.70
2018-06-11T07:26:18.694Z,25.80
2018-06-11T07:28:47.543Z,26.00
2018-06-11T07:31:16.683Z,26.20
2018-06-11T07:33:45.465Z,26.40
2018-06-11T07:36:14.267Z,26.50
2018-06-11T07:38:42.987Z,26.70
2018-06-11T07:41:11.727Z,26.90
2018-06-11T07:43:40.521Z,27.10
2018-06-11T07:46:09.331Z,27.20
2018-06-11T07:48:38.120Z,27.40
2018-06-11T07:51:06.898Z,27.50
2018-06-11T07:53:35.681Z,27.70
2018-06-11T07:56:04.418Z,27.90
2018-06-11T07:58:33.238Z,28.10
2018-06-11T08:01:02.041Z,28.20
2018-06-11T08:03:30.825Z,28.40
2018-06-11T08:05:59.650Z,28.60
2018-06-11T08:08:28.414Z,28.70
2018-06-11T08:10:57.190Z,28.90
2018-06-11T08:13:26.053Z,29.00
2018-06-11T08:15:54.702Z,29.10
2018-06-11T08:18:23.473Z,29.30
2018-06-11T08:20:52.300Z,29.50
2018-06-11T08:23:21.033Z,29.70
2018-06-11T08:25:49.817Z,29.80
2018-06-11T08:28:18.553Z,29.90
2018-06-11T08:30:47.289Z,30.00
2018-06-11T08:33:16.057Z,30.10
2018-06-11T08:35:44.853Z,30.20
2018-06-11T08:38:13.565Z,30.30
2018-06-11T08:40:42.364Z,30.40
2018-06-11T08:43:11.152Z,30.60
2018-06-11T08:48:08.377Z,30.80
2018-06-11T08:50:37.202Z,31.00
2018-06-11T08:53:05.974Z,31.10
2018-06-11T08:55:34.757Z,31.20
2018-06-11T08:58:03.693Z,31.40
2018-06-11T09:03:00.929Z,31.60
2018-06-11T09:05:29.705Z,31.70
2018-06-11T09:07:58.477Z,31.90
2018-06-11T09:10:27.261Z,31.90
2018-06-11T09:12:56.062Z,32.00
2018-06-11T09:15:24.789Z,32.10
2018-06-11T09:17:53.554Z,32.10
2018-06-11T09:20:22.314Z,32.30
2018-06-11T09:22:51.113Z,32.30
2018-06-11T09:25:19.881Z,32.30
2018-06-11T09:27:48.677Z,32.30
2018-06-11T09:30:17.681Z,32.30
2018-06-11T09:32:46.469Z,32.30
2018-06-11T09:35:15.261Z,32.30
2018-06-11T09:37:44.053Z,32.30
2018-06-11T09:40:12.837Z,32.30
2018-06-11T09:42:41.609Z,32.20
2018-06-11T09:45:10.394Z,32.20
2018-06-11T09:47:39.190Z,32.20
2018-06-11T09:50:07.989Z,32.20
2018-06-11T09:52:36.753Z,32.10
2018-06-11T09:55:05.570Z,32.10
2018-06-11T09:57:34.429Z,32.10
2018-06-11T10:00:03.246Z,32.10
2018-06-11T10:02:32.013Z,32.10
2018-06-11T10:05:00.834Z,32.00
2018-06-11T10:07:29.597Z,32.00
2018-06-11T10:09:58.381Z,32.00
2018-06-11T10:12:27.189Z,32.00
2018-06-11T10:14:55.965Z,32.00
2018-06-11T10:17:24.781Z,32.00
2018-06-11T10:19:53.549Z,32.00
2018-06-11T10:22:22.322Z,32.00
2018-06-11T10:24:51.116Z,32.00
2018-06-11T10:27:19.889Z,32.00
2018-06-11T10:29:49.721Z,32.00
2018-06-11T10:34:46.964Z,32.10
2018-06-11T10:37:15.769Z,32.10
2018-06-11T10:39:44.561Z,32.20
2018-06-11T10:42:13.383Z,32.30
2018-06-11T10:44:42.138Z,32.40
2018-06-11T10:47:10.917Z,32.60
2018-06-11T10:49:39.697Z,32.70
2018-06-11T10:52:08.477Z,32.80
2018-06-11T10:54:37.281Z,32.90
2018-06-11T10:57:06.093Z,33.00
2018-06-11T11:02:03.736Z,33.30
2018-06-11T11:04:32.609Z,33.40
2018-06-11T11:07:01.317Z,33.40
2018-06-11T11:09:30.101Z,33.50
2018-06-11T11:11:58.904Z,33.70
2018-06-11T11:14:27.800Z,33.70
2018-06-11T11:16:56.497Z,33.80
2018-06-11T11:19:25.309Z,34.00
2018-06-11T11:21:54.714Z,34.00
2018-06-11T11:24:23.461Z,34.10
2018-06-11T11:26:52.249Z,34.20
2018-06-11T11:29:21.029Z,34.30
2018-06-11T11:31:49.813Z,34.40
2018-06-11T11:34:18.609Z,34.50
2018-06-11T11:36:47.417Z,34.60
2018-06-11T11:39:16.189Z,34.70
2018-06-11T11:41:45.040Z,34.80
2018-06-11T11:44:13.857Z,35.00
2018-06-11T11:46:42.665Z,35.10
2018-06-11T11:49:11.455Z,35.20
2018-06-11T11:51:40.226Z,35.30
2018-06-11T11:54:09.005Z,35.30
2018-06-11T11:56:37.809Z,35.40
2018-06-11T11:59:06.605Z,35.50
2018-06-11T12:01:35.384Z,35.50
2018-06-11T12:04:05.193Z,35.60
2018-06-11T12:09:02.473Z,35.70
2018-06-11T12:11:31.245Z,35.70
2018-06-11T12:14:00.050Z,35.80
2018-06-11T12:16:28.841Z,35.80
2018-06-11T12:18:57.640Z,35.80
2018-06-11T12:21:26.393Z,35.80
2018-06-11T12:23:55.182Z,35.70
2018-06-11T12:26:23.961Z,35.70
2018-06-11T12:28:53.765Z,35.60
2018-06-11T12:31:22.625Z,35.50
2018-06-11T12:33:51.393Z,35.30
2018-06-11T12:38:48.732Z,34.80
2018-06-11T12:41:17.484Z,34.60
2018-06-11T12:43:46.281Z,34.60
2018-06-11T12:46:15.085Z,34.60
2018-06-11T12:48:43.897Z,34.30
2018-06-11T12:51:12.661Z,34.00
2018-06-11T12:53:41.877Z,34.00
2018-06-11T12:56:10.748Z,33.90
2018-06-11T13:01:00.245Z,33.70
2018-06-11T13:03:29.179Z,33.60
2018-06-11T13:05:58.044Z,33.50
2018-06-11T13:08:26.853Z,33.40
2018-06-11T13:10:55.605Z,33.30
2018-06-11T13:13:24.413Z,33.20
2018-06-11T13:15:53.169Z,33.20
2018-06-11T13:18:21.953Z,33.10
2018-06-11T13:20:50.748Z,33.10
2018-06-11T13:23:19.541Z,33.00
2018-06-11T13:25:48.313Z,33.10
2018-06-11T13:30:45.579Z,33.20
2018-06-11T13:33:14.369Z,33.30
2018-06-11T13:35:43.169Z,33.30
2018-06-11T13:38:11.948Z,33.30
2018-06-11T13:40:40.757Z,33.30
2018-06-11T13:43:09.533Z,33.20
2018-06-11T13:45:38.308Z,33.10
2018-06-11T13:48:07.093Z,33.00
2018-06-11T13:50:35.920Z,32.80
2018-06-11T13:53:04.668Z,32.60
2018-06-11T13:55:33.504Z,32.50
2018-06-11T13:58:02.250Z,32.30
2018-06-11T14:00:31.032Z,32.10
2018-06-11T14:02:59.847Z,31.90
2018-06-11T14:05:28.605Z,31.60
2018-06-11T14:07:57.396Z,31.50
2018-06-11T14:10:26.184Z,31.30
2018-06-11T14:12:54.972Z,31.00
2018-06-11T14:15:23.764Z,30.80
2018-06-11T14:17:52.537Z,30.60
2018-06-11T14:20:21.388Z,30.50
2018-06-11T14:22:50.124Z,30.30
2018-06-11T14:25:18.933Z,30.00
2018-06-11T14:27:48.693Z,29.90
2018-06-11T14:30:17.520Z,29.70
2018-06-11T14:32:46.304Z,29.50
2018-06-11T14:35:15.116Z,29.20
2018-06-11T14:37:43.880Z,28.90
2018-06-11T14:40:12.668Z,28.70
2018-06-11T14:42:41.472Z,28.50
2018-06-11T14:45:10.248Z,28.20
2018-06-11T14:47:39.797Z,28.00
2018-06-11T14:50:08.529Z,27.80
2018-06-11T14:52:38.484Z,27.60
2018-06-11T14:55:07.288Z,27.30
2018-06-11T14:57:36.053Z,27.10
2018-06-11T15:00:04.876Z,27.00
2018-06-11T15:02:33.700Z,26.80
2018-06-11T15:05:02.489Z,26.50
2018-06-11T15:07:31.284Z,26.30
2018-06-11T15:10:01.100Z,25.90
2018-06-11T15:12:30.892Z,25.70
2018-06-11T15:14:59.712Z,25.40
2018-06-11T15:17:28.460Z,25.20
2018-06-11T15:19:57.265Z,24.90
2018-06-11T15:22:26.045Z,24.60
2018-06-11T15:24:54.976Z,24.40
2018-06-11T15:27:23.728Z,24.10
2018-06-11T15:32:22.064Z,23.70
2018-06-11T15:34:51.819Z,23.50
2018-06-11T15:37:20.620Z,23.20
2018-06-11T15:39:49.408Z,23.10
2018-06-11T15:42:18.204Z,22.90
2018-06-11T15:44:47.832Z,22.70
2018-06-11T15:47:16.583Z,22.50
2018-06-11T15:49:45.407Z,22.30
2018-06-11T15:52:14.176Z,22.20
2018-06-11T15:54:42.995Z,21.90
2018-06-11T15:57:11.760Z,21.60
2018-06-11T15:59:40.537Z,21.60
2018-06-11T16:02:09.320Z,21.40
2018-06-11T16:04:38.136Z,21.30
2018-06-11T16:09:35.504Z,21.00
2018-06-11T16:14:32.760Z,20.70
2018-06-11T16:17:01.559Z,20.70
2018-06-11T16:19:30.322Z,20.60
2018-06-11T16:21:59.143Z,20.40
2018-06-11T16:26:56.515Z,20.40
2018-06-11T16:29:25.327Z,20.30
2018-06-11T16:31:54.171Z,20.30
2018-06-11T16:34:22.969Z,20.20
2018-06-11T16:36:51.699Z,20.20
2018-06-11T16:39:20.516Z,20.20
2018-06-11T16:41:49.268Z,20.10
2018-06-11T16:44:18.103Z,20.10
2018-06-11T16:46:46.900Z,20.00
2018-06-11T16:49:15.684Z,20.10
2018-06-11T16:51:44.476Z,20.00
2018-06-11T16:56:41.831Z,19.90
2018-06-11T16:59:10.619Z,19.90
2018-06-11T17:01:39.408Z,20.00
2018-06-11T17:04:08.215Z,19.90
2018-06-11T17:06:36.995Z,19.90
2018-06-11T17:09:07.711Z,19.90
2018-06-11T17:11:37.263Z,19.80
2018-06-11T17:16:36.919Z,19.80
2018-06-11T17:19:05.759Z,19.80
2018-06-11T17:21:34.531Z,19.80
2018-06-11T17:24:03.339Z,19.80
2018-06-11T17:26:32.159Z,19.80
2018-06-11T17:29:00.902Z,19.70
2018-06-11T17:31:29.694Z,19.60
2018-06-11T17:33:58.542Z,19.60
2018-06-11T17:36:28.288Z,19.60
2018-06-11T17:38:57.079Z,19.50
2018-06-11T17:41:25.864Z,19.50
2018-06-11T17:43:54.679Z,19.40
2018-06-11T17:46:23.463Z,19.40
2018-06-11T17:48:53.272Z,19.40
2018-06-11T17:51:22.023Z,19.30
2018-06-11T17:53:50.831Z,19.30
2018-06-11T17:56:19.639Z,19.30
2018-06-11T17:58:48.421Z,19.20
2018-06-11T18:01:17.243Z,19.20
2018-06-11T18:03:46.103Z,19.10
2018-06-11T18:06:14.943Z,19.10
2018-06-11T18:08:43.695Z,19.10
2018-06-11T18:11:12.447Z,19.10
2018-06-11T18:13:41.254Z,19.00
2018-06-11T18:16:10.035Z,19.00
2018-06-11T18:18:39.858Z,19.00
2018-06-11T18:21:08.631Z,19.00
2018-06-11T18:23:38.899Z,18.90
2018-06-11T18:26:07.747Z,18.90
2018-06-11T18:28:36.535Z,18.90
2018-06-11T18:31:05.333Z,18.80
2018-06-11T18:33:34.110Z,18.80
2018-06-11T18:36:03.566Z,18.80
2018-06-11T18:38:32.447Z,18.80
2018-06-11T18:41:01.262Z,18.70
2018-06-11T18:43:31.094Z,18.70
2018-06-11T18:45:59.886Z,18.70
2018-06-11T18:48:28.674Z,18.60
2018-06-11T18:50:57.443Z,18.50
2018-06-11T18:53:26.267Z,18.40
2018-06-11T18:55:55.098Z,18.40
2018-06-11T18:58:24.002Z,18.30
2018-06-11T19:00:53.535Z,18.30
2018-06-11T19:03:22.623Z,18.20
2018-06-11T19:05:51.471Z,18.10
2018-06-11T19:08:20.318Z,18.10
2018-06-11T19:10:49.243Z,18.00
2018-06-11T19:13:18.254Z,18.00
2018-06-11T19:15:47.170Z,17.90
2018-06-11T19:18:16.074Z,17.90
2018-06-11T19:20:44.978Z,17.90
2018-06-11T19:23:14.102Z,17.80
2018-06-11T19:25:42.871Z,17.70
2018-06-11T20:50:10.047Z,17.70
2018-06-11T20:52:38.915Z,17.10
2018-06-11T20:55:07.719Z,17.10
2018-06-11T20:57:36.507Z,17.10
2018-06-11T21:00:05.403Z,17.10
2018-06-11T21:05:03.728Z,17.00
2018-06-11T21:07:32.639Z,17.00
2018-06-11T21:10:01.480Z,17.00
2018-06-11T21:12:30.659Z,17.00
2018-06-11T21:14:59.491Z,17.00
2018-06-11T21:17:28.278Z,17.00
2018-06-11T21:19:57.151Z,16.90
2018-06-11T21:24:54.419Z,16.90
2018-06-11T21:29:52.038Z,16.90
2018-06-11T21:32:21.163Z,16.90
2018-06-11T21:34:49.970Z,16.90
2018-06-11T21:39:47.311Z,16.80
2018-06-11T21:42:16.127Z,16.80
2018-06-11T21:47:13.795Z,16.80
2018-06-11T21:49:42.622Z,16.70
2018-06-11T21:52:12.382Z,16.70
2018-06-11T21:54:41.219Z,16.70
2018-06-11T21:57:10.075Z,16.70
2018-06-11T21:59:38.862Z,16.60
2018-06-11T22:02:07.672Z,16.60
2018-06-11T22:04:36.494Z,16.60
2018-06-11T22:07:05.372Z,16.60
2018-06-11T22:09:34.231Z,16.60
2018-06-11T22:12:03.054Z,16.60
2018-06-11T22:14:31.953Z,16.50
2018-06-11T22:17:00.758Z,16.50
2018-06-11T22:19:29.582Z,16.50
2018-06-11T22:21:58.374Z,16.50
2018-06-11T22:24:27.186Z,16.50
2018-06-11T22:26:56.098Z,16.50
2018-06-11T22:29:24.982Z,16.50
2018-06-11T22:31:54.178Z,16.50
2018-06-11T22:34:24.370Z,16.50
2018-06-11T22:36:54.106Z,16.50
2018-06-11T22:39:22.974Z,16.50
2018-06-11T22:41:51.858Z,16.50
2018-06-11T22:44:20.650Z,16.50
2018-06-11T22:46:49.526Z,16.40
2018-06-11T22:51:47.102Z,16.50
2018-06-11T22:59:12.909Z,16.40
2018-06-11T23:01:41.782Z,16.40
2018-06-11T23:04:10.685Z,16.40
2018-06-11T23:06:40.558Z,16.40
2018-06-11T23:09:09.365Z,16.50
2018-06-11T23:11:38.346Z,16.40
2018-06-11T23:14:07.201Z,16.50
2018-06-11T23:16:36.066Z,16.40
2018-06-11T23:19:04.903Z,16.40
2018-06-11T23:21:33.660Z,16.50
2018-06-11T23:24:02.537Z,16.50
2018-06-11T23:26:31.397Z,16.50
2018-06-11T23:29:00.269Z,16.40
2018-06-11T23:31:29.154Z,16.50
2018-06-11T23:33:57.918Z,16.40
2018-06-11T23:36:26.690Z,16.40
2018-06-11T23:38:55.534Z,16.40
2018-06-11T23:41:24.357Z,16.40
2018-06-11T23:43:53.165Z,16.40
2018-06-11T23:46:21.990Z,16.50
2018-06-11T23:48:50.850Z,16.50
2018-06-11T23:51:19.649Z,16.50
2018-06-11T23:53:48.471Z,16.50
2018-06-11T23:56:17.305Z,16.50
2018-06-11T23:58:46.106Z,16.50
